Time;durP1;ratioP1;P1;durP2;ratioP2;P2;SDS_P1;SDS_P2;PMS_P1;PMS_P2;Temp;Humidity;BMP_temperature;BMP_pressure;BME280_temperature;BME280_humidity;BME280_pressure;Samples;Min_cycle;Max_cycle;Signal;HPM_P1;HPM_P2
2021/09/23 00:02:46;;;;;;;7.50;4.70;;;9.70;83.80;;;;;;5052658;28;20739;-65
2021/09/23 00:05:18;;;;;;;5.07;3.53;;;9.70;83.90;;;;;;5040308;28;20218;-64
2021/09/23 00:07:47;;;;;;;5.90;4.40;;;9.70;83.50;;;;;;5032948;28;20385;-63
2021/09/23 00:10:17;;;;;;;4.63;3.80;;;9.70;83.20;;;;;;5032451;28;20318;-64
2021/09/23 00:12:44;;;;;;;9.05;4.50;;;9.70;83.00;;;;;;5032403;28;20281;-64
2021/09/23 00:15:14;;;;;;;5.00;4.10;;;9.60;83.00;;;;;;5032408;28;20313;-64
2021/09/23 00:17:47;;;;;;;5.63;4.53;;;9.60;83.80;;;;;;5032730;28;20252;-64
2021/09/23 00:20:17;;;;;;;6.80;4.32;;;9.60;83.60;;;;;;5031794;28;20221;-64
2021/09/23 00:22:44;;;;;;;9.85;5.18;;;9.60;84.00;;;;;;5032204;28;20623;-65
2021/09/23 00:25:12;;;;;;;6.05;4.85;;;9.60;84.30;;;;;;5032433;28;20218;-64
2021/09/23 00:27:40;;;;;;;5.30;4.80;;;9.50;84.00;;;;;;5032415;28;20645;-64
2021/09/23 00:30:09;;;;;;;5.95;4.40;;;9.50;84.30;;;;;;5032200;28;20281;-64
2021/09/23 00:32:36;;;;;;;6.68;5.05;;;9.40;84.70;;;;;;5032290;28;20697;-64
2021/09/23 00:35:05;;;;;;;7.85;4.00;;;9.30;84.50;;;;;;5031947;28;20281;-64
2021/09/23 00:37:32;;;;;;;5.75;4.35;;;9.20;84.40;;;;;;5036673;28;20269;-66
2021/09/23 00:40:00;;;;;;;7.25;4.50;;;9.20;84.60;;;;;;5053029;28;20194;-64
2021/09/23 00:42:27;;;;;;;6.20;4.43;;;9.10;85.40;;;;;;5055917;28;20281;-64
2021/09/23 00:44:55;;;;;;;7.03;4.75;;;9.10;85.90;;;;;;5056166;28;20297;-64
2021/09/23 00:47:22;;;;;;;8.45;4.68;;;9.10;86.80;;;;;;5053888;28;20201;-64
2021/09/23 00:49:51;;;;;;;9.85;4.32;;;9.10;87.40;;;;;;5036126;28;20276;-65
2021/09/23 00:52:20;;;;;;;5.57;4.35;;;9.10;87.50;;;;;;5035825;28;20277;-64
2021/09/23 00:54:47;;;;;;;7.10;3.85;;;9.20;87.00;;;;;;5035725;28;20217;-64
2021/09/23 00:57:18;;;;;;;4.55;4.15;;;9.20;86.90;;;;;;5049416;28;20286;-64
2021/09/23 00:59:45;;;;;;;4.30;3.20;;;9.20;86.60;;;;;;5056326;28;20205;-64
2021/09/23 01:02:12;;;;;;;8.05;3.90;;;9.20;85.60;;;;;;5055607;28;20206;-64
2021/09/23 01:04:44;;;;;;;5.45;3.85;;;9.20;84.80;;;;;;5055910;28;20202;-64
2021/09/23 01:07:12;;;;;;;5.15;3.97;;;9.20;84.30;;;;;;5043325;28;20237;-64
2021/09/23 01:09:43;;;;;;;5.05;3.65;;;9.20;84.10;;;;;;5035798;28;20283;-65
2021/09/23 01:12:12;;;;;;;5.78;4.47;;;9.10;83.90;;;;;;5035680;28;20283;-64
2021/09/23 01:14:39;;;;;;;5.13;3.65;;;9.10;84.10;;;;;;5035255;28;20191;-65
2021/09/23 01:17:06;;;;;;;5.28;4.10;;;9.10;84.40;;;;;;5035867;28;20233;-64
2021/09/23 01:19:34;;;;;;;5.95;4.15;;;9.00;84.50;;;;;;5034859;28;20253;-64
2021/09/23 01:22:03;;;;;;;5.30;3.78;;;9.10;84.60;;;;;;5035114;28;20186;-64
2021/09/23 01:24:30;;;;;;;5.30;4.00;;;9.10;83.50;;;;;;5035270;28;20275;-64
2021/09/23 01:26:57;;;;;;;5.80;4.65;;;9.00;83.30;;;;;;5035322;28;20229;-64
2021/09/23 01:29:25;;;;;;;5.18;4.25;;;9.00;83.40;;;;;;5035401;28;20179;-65
2021/09/23 01:31:52;;;;;;;5.60;4.00;;;9.00;83.60;;;;;;5035519;28;20199;-64
2021/09/23 01:34:19;;;;;;;5.30;4.15;;;9.00;83.90;;;;;;5034618;28;20634;-65
2021/09/23 01:36:47;;;;;;;4.90;3.50;;;9.00;84.40;;;;;;5035076;28;20285;-65
2021/09/23 01:39:18;;;;;;;6.75;3.67;;;8.90;83.40;;;;;;5034923;28;20342;-64
2021/09/23 01:41:46;;;;;;;5.45;4.47;;;8.90;82.90;;;;;;5034938;28;20198;-64
2021/09/23 01:44:13;;;;;;;5.47;4.10;;;8.90;83.00;;;;;;5035208;28;20189;-64
2021/09/23 01:46:40;;;;;;;6.07;4.63;;;8.80;82.60;;;;;;5034888;28;20187;-64
2021/09/23 01:49:22;;;;;;;5.30;4.45;;;8.80;82.50;;;;;;5034854;28;20286;-64
2021/09/23 01:51:49;;;;;;;5.38;4.43;;;8.80;82.90;;;;;;5034824;28;20223;-65
2021/09/23 01:54:18;;;;;;;7.55;5.20;;;8.70;83.40;;;;;;5034314;28;20676;-64
2021/09/23 01:56:45;;;;;;;6.38;4.10;;;8.70;83.70;;;;;;5035303;28;20306;-64
2021/09/23 01:59:12;;;;;;;5.30;3.90;;;8.70;83.90;;;;;;5034604;28;20195;-64
2021/09/23 02:01:41;;;;;;;5.10;3.83;;;8.70;83.30;;;;;;5034917;28;20195;-64
2021/09/23 02:04:08;;;;;;;5.35;4.07;;;8.70;83.70;;;;;;5034703;28;20197;-65
2021/09/23 02:06:36;;;;;;;5.18;3.72;;;8.70;83.90;;;;;;5034685;28;20237;-65
2021/09/23 02:09:03;;;;;;;5.43;4.05;;;8.60;84.10;;;;;;5051978;28;20186;-64
2021/09/23 02:11:32;;;;;;;4.40;3.78;;;8.60;83.90;;;;;;5054703;28;20277;-64
2021/09/23 02:13:59;;;;;;;4.75;3.42;;;8.60;84.20;;;;;;5054076;28;20284;-64
2021/09/23 02:16:30;;;;;;;4.13;3.30;;;8.60;82.90;;;;;;5054073;28;20301;-64
2021/09/23 02:18:57;;;;;;;4.93;3.58;;;8.50;81.80;;;;;;5053905;28;20229;-65
2021/09/23 02:21:24;;;;;;;6.80;2.90;;;8.40;81.70;;;;;;5054397;28;20281;-64
2021/09/23 02:23:51;;;;;;;8.73;3.47;;;8.30;82.00;;;;;;5054081;28;20278;-65
2021/09/23 02:26:18;;;;;;;5.65;3.90;;;8.30;82.60;;;;;;5054486;28;20190;-66
2021/09/23 02:28:47;;;;;;;5.35;3.17;;;8.30;83.10;;;;;;5053906;28;20670;-64
2021/09/23 02:31:15;;;;;;;4.43;3.10;;;8.30;83.80;;;;;;5054380;28;20225;-64
2021/09/23 02:33:42;;;;;;;5.45;3.40;;;8.30;83.80;;;;;;5053769;28;20186;-65
2021/09/23 02:36:09;;;;;;;5.00;3.35;;;8.20;82.40;;;;;;5043452;28;20635;-64
2021/09/23 02:38:36;;;;;;;4.50;3.08;;;8.10;82.80;;;;;;5034078;28;20229;-64
2021/09/23 02:41:03;;;;;;;5.63;3.58;;;8.00;83.80;;;;;;5033761;28;20290;-64
2021/09/23 02:43:30;;;;;;;4.85;3.53;;;8.10;84.20;;;;;;5033978;28;20725;-64
2021/09/23 02:45:59;;;;;;;3.72;2.97;;;8.10;84.30;;;;;;5033761;28;20186;-64
2021/09/23 02:48:25;;;;;;;5.28;3.47;;;8.10;84.60;;;;;;5034125;28;20614;-64
2021/09/23 02:50:53;;;;;;;5.07;3.90;;;8.10;85.90;;;;;;5033633;28;20218;-64
2021/09/23 02:53:20;;;;;;;8.98;5.47;;;8.10;85.40;;;;;;5034168;28;20230;-65
2021/09/23 02:55:47;;;;;;;9.38;5.65;;;8.20;85.80;;;;;;5046588;28;20224;-64
2021/09/23 02:58:15;;;;;;;6.35;4.15;;;8.20;85.60;;;;;;5053329;28;20673;-64
2021/09/23 03:00:41;;;;;;;13.52;3.63;;;8.20;84.30;;;;;;5053058;28;20191;-65
2021/09/23 03:03:14;;;;;;;5.90;4.70;;;8.20;83.40;;;;;;5052686;28;20285;-64
2021/09/23 03:05:42;;;;;;;4.85;3.60;;;8.10;83.00;;;;;;5033654;28;20195;-64
2021/09/23 03:08:09;;;;;;;5.15;3.63;;;8.10;83.50;;;;;;5033337;28;20302;-65
2021/09/23 03:10:36;;;;;;;7.13;4.30;;;8.10;83.70;;;;;;5051906;28;20194;-65
2021/09/23 03:13:09;;;;;;;7.80;5.10;;;8.10;83.50;;;;;;5053646;28;20285;-64
2021/09/23 03:15:36;;;;;;;6.80;4.57;;;8.10;84.20;;;;;;5034040;28;20469;-65
2021/09/23 03:18:03;;;;;;;9.15;4.35;;;8.20;84.70;;;;;;5033265;28;20677;-65
2021/09/23 03:20:45;;;;;;;6.22;4.40;;;8.20;84.10;;;;;;5033069;28;20289;-65
2021/09/23 03:23:13;;;;;;;12.40;5.18;;;8.20;84.90;;;;;;5033465;28;20194;-64
2021/09/23 03:25:41;;;;;;;24.13;5.63;;;8.20;85.10;;;;;;5049843;28;20202;-64
2021/09/23 03:28:09;;;;;;;21.42;6.47;;;8.20;86.00;;;;;;5053043;28;20575;-65
2021/09/23 03:30:36;;;;;;;28.92;6.10;;;8.20;86.60;;;;;;5052300;28;20277;-65
2021/09/23 03:33:03;;;;;;;14.88;5.82;;;8.20;86.80;;;;;;5038583;28;20269;-64
2021/09/23 03:35:31;;;;;;;11.57;5.35;;;8.30;87.60;;;;;;5033012;28;20226;-65
2021/09/23 03:37:59;;;;;;;11.88;6.72;;;8.20;87.90;;;;;;5032751;28;20198;-65
2021/09/23 03:40:27;;;;;;;15.20;6.18;;;8.20;88.90;;;;;;5032710;28;20274;-65
2021/09/23 03:42:54;;;;;;;11.05;5.80;;;8.20;89.10;;;;;;5032475;28;20271;-65
2021/09/23 03:45:22;;;;;;;12.00;5.22;;;8.30;89.30;;;;;;5033232;28;20249;-65
2021/09/23 03:47:50;;;;;;;9.90;4.13;;;8.30;89.20;;;;;;5032566;28;20581;-65
2021/09/23 03:50:18;;;;;;;7.18;4.35;;;8.20;89.20;;;;;;5033112;28;20294;-65
2021/09/23 03:52:46;;;;;;;7.75;4.80;;;8.30;89.10;;;;;;5032275;28;20273;-64
2021/09/23 03:55:16;;;;;;;7.68;4.20;;;8.20;88.30;;;;;;5032672;28;20192;-65
2021/09/23 03:57:44;;;;;;;9.57;7.15;;;8.10;88.00;;;;;;5032579;28;20207;-64
2021/09/23 04:00:13;;;;;;;10.15;4.95;;;8.10;88.30;;;;;;5037794;28;20186;-64
2021/09/23 04:02:40;;;;;;;4.65;3.55;;;8.20;88.30;;;;;;5052683;28;20206;-65
2021/09/23 04:05:08;;;;;;;8.43;4.10;;;8.20;87.90;;;;;;5052493;28;20178;-64
2021/09/23 04:07:35;;;;;;;6.47;4.68;;;8.20;87.40;;;;;;5052898;28;20186;-65
2021/09/23 04:10:02;;;;;;;6.03;4.40;;;8.10;87.20;;;;;;5048874;28;20192;-65
2021/09/23 04:12:30;;;;;;;5.05;4.20;;;8.10;87.60;;;;;;5032409;28;20277;-65
2021/09/23 04:14:57;;;;;;;6.55;3.92;;;8.10;87.70;;;;;;5033463;28;20191;-64
2021/09/23 04:17:24;;;;;;;7.75;4.35;;;8.10;87.60;;;;;;5052743;28;20588;-64
2021/09/23 04:19:51;;;;;;;5.30;3.90;;;8.10;87.10;;;;;;5051603;28;20222;-65
2021/09/23 04:22:23;;;;;;;6.65;3.85;;;8.10;87.30;;;;;;5052672;28;20233;-65
2021/09/23 04:24:51;;;;;;;10.77;4.65;;;8.10;86.70;;;;;;5052748;28;20590;-65
2021/09/23 04:27:18;;;;;;;24.77;5.55;;;8.00;87.40;;;;;;5052771;28;20186;-64
2021/09/23 04:29:47;;;;;;;4.13;2.83;;;7.90;87.70;;;;;;5034493;28;20218;-64
2021/09/23 04:32:14;;;;;;;6.10;3.90;;;7.90;87.90;;;;;;5032558;28;20277;-64
2021/09/23 04:34:41;;;;;;;7.43;4.75;;;8.00;87.70;;;;;;5032072;28;20275;-64
2021/09/23 04:37:08;;;;;;;7.15;4.32;;;8.00;87.50;;;;;;5032374;28;20254;-64
2021/09/23 04:39:35;;;;;;;5.40;4.05;;;7.90;88.40;;;;;;5032102;28;20278;-64
2021/09/23 04:42:02;;;;;;;8.48;3.85;;;8.00;88.60;;;;;;5032336;28;20202;-64
2021/09/23 04:44:29;;;;;;;13.40;5.25;;;8.00;89.20;;;;;;5032275;28;20294;-64
2021/09/23 04:46:58;;;;;;;8.50;4.68;;;7.90;88.90;;;;;;5032295;28;20610;-65
2021/09/23 04:49:25;;;;;;;21.13;5.30;;;7.90;89.50;;;;;;5031897;28;20725;-64
2021/09/23 04:51:56;;;;;;;16.27;4.80;;;7.80;90.10;;;;;;5038610;28;20214;-64
2021/09/23 04:54:23;;;;;;;20.48;6.07;;;7.70;90.40;;;;;;5052054;28;20277;-64
2021/09/23 04:56:50;;;;;;;8.60;5.43;;;7.70;90.60;;;;;;5041825;28;20247;-64
2021/09/23 04:59:17;;;;;;;7.47;5.32;;;7.70;91.20;;;;;;5032361;28;20274;-63
2021/09/23 05:01:44;;;;;;;9.40;4.53;;;7.70;91.40;;;;;;5036712;28;20262;-64
2021/09/23 05:04:13;;;;;;;7.97;5.30;;;7.80;90.80;;;;;;5051979;28;20191;-64
2021/09/23 05:06:40;;;;;;;8.60;4.50;;;7.80;90.40;;;;;;5051618;28;20193;-64
2021/09/23 05:09:07;;;;;;;7.25;5.30;;;7.70;90.50;;;;;;5052096;28;20194;-64
2021/09/23 05:11:34;;;;;;;6.07;5.18;;;7.70;90.40;;;;;;5046495;28;20221;-67
2021/09/23 05:14:01;;;;;;;6.60;4.63;;;7.80;90.50;;;;;;5048712;28;20230;-64
2021/09/23 05:16:28;;;;;;;5.13;4.43;;;7.80;90.40;;;;;;5048261;28;20221;-64
2021/09/23 05:18:55;;;;;;;6.15;4.88;;;7.80;90.00;;;;;;5035176;28;20198;-64
2021/09/23 05:21:23;;;;;;;6.25;3.90;;;7.80;90.00;;;;;;5031507;28;20274;-64
2021/09/23 05:23:53;;;;;;;5.82;4.53;;;7.80;89.50;;;;;;5040088;28;20193;-65
2021/09/23 05:26:20;;;;;;;6.97;4.82;;;7.80;89.60;;;;;;5050790;28;20608;-64
2021/09/23 05:28:47;;;;;;;7.07;4.70;;;7.80;89.90;;;;;;5040810;28;20194;-64
2021/09/23 05:31:14;;;;;;;7.05;5.32;;;7.80;89.60;;;;;;5052843;28;20233;-64
2021/09/23 05:33:43;;;;;;;7.53;5.60;;;7.90;89.50;;;;;;5052318;28;20285;-64
2021/09/23 05:36:11;;;;;;;8.68;6.15;;;7.90;89.50;;;;;;5052655;28;20213;-64
2021/09/23 05:38:39;;;;;;;6.70;6.00;;;8.00;89.40;;;;;;5047759;28;20187;-65
2021/09/23 05:41:06;;;;;;;7.00;5.60;;;8.10;89.20;;;;;;5043854;28;20282;-64
2021/09/23 05:43:34;;;;;;;6.20;4.63;;;7.90;87.10;;;;;;5051654;28;20289;-64
2021/09/23 05:46:01;;;;;;;6.57;5.38;;;7.70;88.20;;;;;;5051600;28;20265;-65
2021/09/23 05:48:28;;;;;;;5.07;4.35;;;7.70;89.40;;;;;;5034670;28;20281;-64
2021/09/23 05:50:55;;;;;;;7.22;4.10;;;7.80;89.60;;;;;;5034419;28;20179;-64
2021/09/23 05:53:22;;;;;;;6.55;5.07;;;7.80;90.00;;;;;;5034284;28;20271;-65
2021/09/23 05:55:50;;;;;;;6.85;4.28;;;7.90;90.20;;;;;;5034805;28;20286;-66
2021/09/23 05:58:17;;;;;;;5.25;4.57;;;8.00;90.20;;;;;;5051930;28;20262;-64
2021/09/23 06:00:47;;;;;;;6.68;4.88;;;8.10;90.20;;;;;;5052421;28;20198;-64
2021/09/23 06:03:14;;;;;;;6.28;4.75;;;8.30;90.10;;;;;;5051748;28;20198;-65
2021/09/23 06:05:41;;;;;;;5.35;4.05;;;8.30;90.10;;;;;;5033808;28;20286;-65
2021/09/23 06:08:08;;;;;;;5.00;4.00;;;8.40;90.50;;;;;;5034664;28;20278;-65
2021/09/23 06:10:35;;;;;;;5.18;3.83;;;8.40;90.40;;;;;;5051288;28;20610;-64
2021/09/23 06:13:05;;;;;;;5.40;4.50;;;8.50;90.40;;;;;;5052201;28;20199;-64
2021/09/23 06:15:50;;;;;;;5.25;4.45;;;8.60;90.20;;;;;;5021741;28;20187;-68
2021/09/23 06:18:25;;;;;;;5.35;4.57;;;8.70;89.90;;;;;;5016943;28;20233;-68
2021/09/23 06:20:55;;;;;;;5.15;3.80;;;8.90;90.20;;;;;;5009841;28;20231;-64
2021/09/23 06:23:28;;;;;;;5.97;4.82;;;9.00;90.20;;;;;;5023032;28;20303;-66
2021/09/23 06:26:02;;;;;;;5.97;4.22;;;9.10;90.00;;;;;;5030546;28;20190;-66
2021/09/23 06:28:38;;;;;;;8.82;4.40;;;9.20;90.10;;;;;;5014594;28;20270;-65
2021/09/23 06:31:05;;;;;;;5.80;4.65;;;9.30;90.20;;;;;;5025918;28;20179;-65
2021/09/23 06:33:32;;;;;;;8.15;4.32;;;9.50;90.20;;;;;;5013395;28;20294;-65
2021/09/23 06:35:59;;;;;;;5.15;4.50;;;9.70;90.10;;;;;;5013838;28;20202;-65
2021/09/23 06:38:26;;;;;;;5.93;4.70;;;9.80;89.30;;;;;;5012716;28;20715;-65
2021/09/23 06:40:55;;;;;;;7.22;4.88;;;10.00;88.30;;;;;;5019887;28;20274;-66
2021/09/23 06:43:22;;;;;;;10.55;4.70;;;10.20;88.60;;;;;;5014400;28;20302;-65
2021/09/23 06:45:53;;;;;;;8.13;5.35;;;10.50;86.00;;;;;;5024648;28;20199;-65
2021/09/23 06:48:20;;;;;;;8.45;5.13;;;10.60;85.60;;;;;;5030872;28;20282;-66
2021/09/23 06:50:47;;;;;;;8.63;4.80;;;10.90;86.80;;;;;;5029110;28;20257;-65
2021/09/23 06:53:14;;;;;;;6.10;5.20;;;11.20;85.70;;;;;;5030659;28;20789;-68
2021/09/23 06:55:41;;;;;;;6.30;4.82;;;11.60;84.10;;;;;;5030615;28;20199;-64
2021/09/23 06:58:08;;;;;;;5.40;4.60;;;11.90;81.40;;;;;;5030255;28;20222;-65
2021/09/23 07:00:40;;;;;;;7.60;4.82;;;12.30;81.40;;;;;;5029787;28;20294;-64
2021/09/23 07:03:08;;;;;;;6.55;5.85;;;12.90;80.80;;;;;;5030238;28;20311;-65
2021/09/23 07:05:36;;;;;;;5.82;4.50;;;13.60;79.90;;;;;;5030138;28;20245;-65
2021/09/23 07:08:04;;;;;;;5.90;4.68;;;14.40;78.90;;;;;;5029385;28;20191;-65
2021/09/23 07:10:31;;;;;;;8.82;4.68;;;15.30;74.30;;;;;;5030426;28;20652;-65
2021/09/23 07:12:58;;;;;;;6.27;4.57;;;16.20;72.30;;;;;;5029585;28;20286;-66
2021/09/23 07:15:28;;;;;;;5.27;4.77;;;17.00;68.00;;;;;;5030260;28;20492;-65
2021/09/23 07:17:55;;;;;;;4.53;3.83;;;18.00;63.40;;;;;;5025597;28;20489;-66
2021/09/23 07:20:24;;;;;;;5.00;3.93;;;19.40;60.10;;;;;;5042117;28;20807;-65
2021/09/23 07:22:51;;;;;;;4.00;3.60;;;21.70;58.40;;;;;;5049693;28;20874;-66
2021/09/23 07:25:20;;;;;;;4.57;3.93;;;23.70;54.30;;;;;;5048094;28;20862;-66
2021/09/23 07:27:51;;;;;;;5.13;3.20;;;25.80;50.10;;;;;;5049494;28;20445;-65
2021/09/23 07:30:22;;;;;;;5.40;3.77;;;27.80;42.90;;;;;;5049477;28;20445;-65
2021/09/23 07:32:50;;;;;;;4.10;3.70;;;;;;;;;;5048782;28;20441;-66
2021/09/23 07:35:23;;;;;;;7.00;3.13;;;29.50;36.20;;;;;;5049722;28;20433;-65
2021/09/23 07:37:50;;;;;;;3.93;3.07;;;;;;;;;;5049897;28;20495;-65
2021/09/23 07:40:18;;;;;;;6.47;4.13;;;31.90;30.30;;;;;;5048702;28;20467;-66
2021/09/23 07:42:48;;;;;;;4.60;4.10;;;33.90;26.10;;;;;;5049566;28;20514;-66
2021/09/23 07:45:15;;;;;;;7.47;3.77;;;34.70;24.80;;;;;;5049889;28;20437;-65
2021/09/23 07:47:42;;;;;;;4.67;3.50;;;35.50;25.70;;;;;;5036136;28;20547;-67
2021/09/23 07:50:10;;;;;;;5.87;3.43;;;;;;;;;;5049114;28;20473;-65
2021/09/23 07:52:39;;;;;;;5.07;3.60;;;;;;;;;;5049062;28;20927;-66
2021/09/23 07:55:07;;;;;;;3.80;2.80;;;;;;;;;;5048663;28;20495;-66
2021/09/23 07:57:35;;;;;;;3.93;3.53;;;;;;;;;;5048382;28;20852;-66
2021/09/23 08:00:08;;;;;;;6.83;4.70;;;;;;;;;;5048648;28;20990;-66
2021/09/23 08:02:36;;;;;;;4.30;3.90;;;;;;;;;;5048778;28;20524;-67
2021/09/23 08:05:03;;;;;;;4.53;3.87;;;;;;;;;;5048208;28;20858;-66
2021/09/23 08:07:30;;;;;;;4.13;3.73;;;;;;;;;;5048776;28;20502;-65
2021/09/23 08:09:59;;;;;;;7.40;3.43;;;36.60;25.10;;;;;;5048899;28;20499;-65
2021/09/23 08:12:27;;;;;;;4.70;3.80;;;42.90;16.70;;;;;;5048814;28;20437;-67
2021/09/23 08:14:54;;;;;;;4.70;4.20;;;43.10;16.30;;;;;;5048589;28;20441;-67
2021/09/23 08:17:21;;;;;;;4.77;3.90;;;43.60;15.70;;;;;;5049089;28;20491;-68
2021/09/23 08:19:53;;;;;;;4.10;3.70;;;44.00;16.30;;;;;;5048950;28;20620;-66
2021/09/23 08:22:20;;;;;;;4.13;3.20;;;44.60;16.10;;;;;;5040628;28;20422;-66
2021/09/23 08:24:47;;;;;;;4.43;3.50;;;;;;;;;;5035714;28;20532;-67
2021/09/23 08:27:21;;;;;;;3.63;3.20;;;;;;;;;;5038109;28;20445;-64
2021/09/23 08:29:48;;;;;;;7.27;3.40;;;;;;;;;;5039161;28;20787;-68
2021/09/23 08:32:19;;;;;;;4.30;3.33;;;;;;;;;;5038376;28;20442;-64
2021/09/23 08:34:46;;;;;;;4.03;3.40;;;;;;;;;;5039458;28;20452;-64
2021/09/23 08:37:14;;;;;;;3.67;2.97;;;;;;;;;;5035276;28;20457;-64
2021/09/23 08:39:41;;;;;;;3.60;3.00;;;;;;;;;;5037558;28;20453;-64
2021/09/23 08:42:10;;;;;;;4.33;3.27;;;;;;;;;;5040399;28;20436;-65
2021/09/23 08:44:40;;;;;;;3.90;3.30;;;45.50;15.00;;;;;;5037817;28;20556;-65
2021/09/23 08:47:08;;;;;;;3.67;3.37;;;49.10;12.60;;;;;;5039249;28;20425;-65
2021/09/23 08:49:35;;;;;;;4.20;3.10;;;49.40;11.60;;;;;;5037325;28;20453;-65
2021/09/23 08:52:02;;;;;;;5.47;3.30;;;49.90;11.80;;;;;;5039681;28;20446;-64
2021/09/23 08:54:29;;;;;;;3.23;2.93;;;;;;;;;;5038437;28;20459;-64
2021/09/23 08:57:01;;;;;;;3.57;3.23;;;;;;;;;;5039356;28;20437;-65
2021/09/23 08:59:29;;;;;;;3.40;3.10;;;;;;;;;;5039117;28;20444;-64
2021/09/23 09:01:59;;;;;;;4.50;3.23;;;;;;;;;;5041098;28;20445;-65
2021/09/23 09:04:36;;;;;;;3.60;2.80;;;;;;;;;;5042197;28;20443;-67
2021/09/23 09:07:04;;;;;;;2.90;2.60;;;;;;;;;;5041635;28;20447;-64
2021/09/23 09:09:34;;;;;;;3.33;3.00;;;;;;;;;;5042854;28;20448;-65
2021/09/23 09:12:14;;;;;;;4.47;3.07;;;;;;;;;;5041542;28;20441;-65
2021/09/23 09:14:42;;;;;;;3.90;2.90;;;;;;;;;;5040379;28;21322;-65
2021/09/23 09:17:11;;;;;;;3.40;2.83;;;;;;;;;;5043899;28;20810;-66
2021/09/23 09:19:45;;;;;;;2.80;2.33;;;;;;;;;;5043177;28;20480;-64
2021/09/23 09:22:13;;;;;;;3.10;2.80;;;;;;;;;;5041102;28;20452;-65
2021/09/23 09:24:47;;;;;;;2.93;2.33;;;;;;;;;;5040544;28;20579;-64
2021/09/23 09:27:26;;;;;;;3.33;2.63;;;;;;;;;;5034012;28;20446;-65
2021/09/23 09:29:56;;;;;;;3.73;3.33;;;;;;;;;;5042918;28;20990;-65
2021/09/23 09:32:39;;;;;;;3.20;2.43;;;;;;;;;;5040514;28;20927;-65
2021/09/23 09:35:07;;;;;;;2.90;2.60;;;;;;;;;;5041839;28;20456;-66
2021/09/23 09:37:35;;;;;;;4.30;3.00;;;;;;;;;;5041076;28;20524;-65
2021/09/23 09:40:03;;;;;;;3.40;3.03;;;;;;;;;;5044543;28;20852;-65
2021/09/23 09:42:31;;;;;;;2.60;2.40;;;;;;;;;;5042097;28;20430;-65
2021/09/23 09:44:59;;;;;;;3.13;2.83;;;;;;;;;;5042130;28;20491;-65
2021/09/23 09:47:27;;;;;;;2.90;2.50;;;;;;;;;;5044609;28;20444;-68
2021/09/23 09:49:56;;;;;;;2.43;2.23;;;;;;;;;;5042508;28;20437;-65
2021/09/23 09:52:29;;;;;;;3.07;2.77;;;;;;;;;;5042020;28;20844;-66
2021/09/23 09:55:03;;;;;;;2.67;2.47;;;;;;;;;;5041268;28;20438;-65
2021/09/23 09:57:30;;;;;;;3.63;2.40;;;;;;;;;;5041734;28;20477;-65
2021/09/23 09:59:59;;;;;;;2.60;2.13;;;;;;;;;;5044569;28;20451;-66
2021/09/23 10:02:28;;;;;;;3.63;2.33;;;;;;;;;;5041653;28;20925;-65
2021/09/23 10:04:59;;;;;;;2.50;2.30;;;;;;;;;;5043238;28;20445;-65
2021/09/23 10:07:28;;;;;;;2.40;2.10;;;;;;;;;;5041133;28;20448;-66
2021/09/23 10:09:56;;;;;;;3.10;2.30;;;52.60;9.10;;;;;;5040991;28;20500;-65
2021/09/23 10:12:25;;;;;;;3.23;2.00;;;58.10;6.60;;;;;;5044176;28;20432;-66
2021/09/23 10:14:57;;;;;;;2.63;2.37;;;58.00;6.90;;;;;;5039892;28;20445;-66
2021/09/23 10:17:29;;;;;;;3.37;2.07;;;58.20;6.60;;;;;;5044188;28;20468;-65
2021/09/23 10:19:59;;;;;;;2.77;2.57;;;58.60;6.40;;;;;;5044076;28;20472;-66
2021/09/23 10:22:26;;;;;;;2.87;2.53;;;58.80;6.40;;;;;;5038242;28;20786;-66
2021/09/23 10:25:01;;;;;;;3.63;2.47;;;58.90;6.80;;;;;;5041176;28;20539;-66
2021/09/23 10:30:15;;;;;;;3.37;2.30;;;59.00;7.00;;;;;;5041332;28;21477;-65
2021/09/23 10:32:42;;;;;;;3.57;2.23;;;59.00;6.60;;;;;;5040636;28;20444;-65
2021/09/23 10:35:13;;;;;;;2.83;2.50;;;59.10;6.90;;;;;;5039113;28;20446;-66
2021/09/23 10:37:41;;;;;;;2.83;2.53;;;59.30;6.60;;;;;;5040243;28;20437;-66
2021/09/23 10:40:11;;;;;;;2.93;2.50;;;59.30;6.50;;;;;;5041682;28;20472;-65
2021/09/23 10:42:39;;;;;;;3.37;2.67;;;59.30;6.80;;;;;;5038960;28;20452;-66
2021/09/23 10:45:06;;;;;;;2.93;2.27;;;59.50;6.60;;;;;;5042074;28;20521;-65
2021/09/23 10:47:35;;;;;;;3.27;2.50;;;59.70;6.90;;;;;;5039308;28;20535;-66
2021/09/23 10:50:06;;;;;;;2.73;2.13;;;59.90;6.60;;;;;;5039177;28;20540;-65
2021/09/23 10:52:36;;;;;;;3.07;2.40;;;60.00;6.90;;;;;;5041565;28;20441;-65
2021/09/23 10:55:05;;;;;;;2.30;1.97;;;60.00;6.80;;;;;;5041731;28;20452;-65
2021/09/23 10:57:33;;;;;;;3.03;2.73;;;60.10;6.60;;;;;;5039532;28;21107;-65
2021/09/23 11:00:02;;;;;;;3.83;2.47;;;60.30;6.80;;;;;;5039751;28;20554;-68
2021/09/23 11:02:32;;;;;;;2.50;2.30;;;60.40;6.60;;;;;;5038122;28;20535;-65
2021/09/23 11:05:01;;;;;;;3.03;2.70;;;60.40;6.90;;;;;;5035484;28;20438;-66
2021/09/23 11:07:30;;;;;;;3.00;2.30;;;60.50;6.60;;;;;;5036677;28;20867;-65
2021/09/23 11:10:10;;;;;;;3.13;2.17;;;60.30;6.70;;;;;;5039173;28;20491;-67
2021/09/23 11:12:44;;;;;;;2.37;2.07;;;60.50;6.80;;;;;;5042250;28;20439;-67
2021/09/23 11:15:13;;;;;;;2.57;2.37;;;60.70;6.60;;;;;;5037776;28;20502;-65
2021/09/23 11:17:42;;;;;;;2.30;2.10;;;60.60;6.60;;;;;;5039832;28;20803;-65
2021/09/23 11:20:12;;;;;;;3.60;2.40;;;60.10;6.80;;;;;;5038023;28;20464;-65
2021/09/23 11:22:41;;;;;;;2.87;2.60;;;60.30;7.10;;;;;;5040361;28;20460;-65
2021/09/23 11:25:13;;;;;;;2.60;2.40;;;60.30;7.20;;;;;;5037527;28;20519;-66
2021/09/23 11:27:43;;;;;;;3.07;2.27;;;60.40;6.70;;;;;;5040253;28;21002;-65
2021/09/23 11:30:12;;;;;;;2.80;2.37;;;60.20;6.90;;;;;;5040526;28;21439;-65
2021/09/23 11:32:55;;;;;;;2.40;2.20;;;60.00;7.20;;;;;;5040716;28;20468;-65
2021/09/23 11:35:24;;;;;;;2.80;2.13;;;59.60;6.90;;;;;;5038663;28;20554;-65
2021/09/23 11:37:53;;;;;;;3.20;2.90;;;59.30;7.00;;;;;;5039510;28;20436;-66
2021/09/23 11:40:24;;;;;;;2.57;2.37;;;59.40;6.60;;;;;;5040616;28;20518;-65
2021/09/23 11:42:55;;;;;;;4.40;2.40;;;59.20;6.60;;;;;;5039060;28;20445;-66
2021/09/23 11:45:23;;;;;;;2.60;2.27;;;59.30;6.60;;;;;;5040849;28;20482;-64
2021/09/23 11:47:53;;;;;;;4.83;2.27;;;59.60;6.80;;;;;;5041026;28;20527;-66
2021/09/23 11:50:29;;;;;;;3.70;3.17;;;60.00;6.60;;;;;;5042606;28;20480;-66
2021/09/23 11:53:00;;;;;;;2.73;2.43;;;60.30;6.70;;;;;;5042057;28;20436;-65
2021/09/23 11:55:29;;;;;;;3.13;2.83;;;60.40;6.90;;;;;;5038716;28;20448;-65
2021/09/23 11:58:07;;;;;;;3.87;2.53;;;60.50;6.30;;;;;;5041035;28;20437;-65
2021/09/23 12:00:49;;;;;;;3.23;2.60;;;60.40;6.50;;;;;;5040820;28;20452;-65
2021/09/23 12:03:19;;;;;;;2.43;2.23;;;60.40;6.30;;;;;;5035915;28;20452;-65
2021/09/23 12:05:47;;;;;;;3.07;2.33;;;60.40;6.00;;;;;;5041150;28;20461;-65
2021/09/23 12:08:16;;;;;;;2.90;2.70;;;60.30;6.30;;;;;;5041723;28;20449;-65
2021/09/23 12:10:53;;;;;;;3.13;2.20;;;60.00;6.80;;;;;;5041396;28;20436;-65
2021/09/23 12:16:14;;;;;;;3.10;2.70;;;59.10;6.20;;;;;;5042329;28;20440;-65
2021/09/23 12:18:43;;;;;;;2.57;2.37;;;58.50;6.50;;;;;;5041071;28;20445;-66
2021/09/23 12:21:13;;;;;;;2.60;2.33;;;58.20;6.90;;;;;;5040670;28;20576;-64
2021/09/23 12:23:42;;;;;;;2.90;2.20;;;57.70;6.60;;;;;;5042861;28;20433;-64
2021/09/23 12:26:16;;;;;;;2.20;2.00;;;57.10;6.80;;;;;;5040182;28;20477;-64
2021/09/23 12:28:51;;;;;;;3.07;2.67;;;57.00;7.60;;;;;;5041334;28;20489;-66
2021/09/23 12:31:33;;;;;;;2.97;2.30;;;56.80;7.60;;;;;;5041860;28;20519;-64
2021/09/23 12:34:04;;;;;;;2.30;2.10;;;56.50;7.70;;;;;;5042646;28;20469;-65
2021/09/23 12:36:36;;;;;;;2.70;2.10;;;56.10;7.60;;;;;;5043397;28;20511;-65
2021/09/23 12:39:19;;;;;;;2.40;2.10;;;55.30;7.70;;;;;;5043980;28;20487;-65
2021/09/23 12:42:04;;;;;;;2.40;2.20;;;54.70;8.10;;;;;;5045065;28;20445;-64
2021/09/23 12:44:35;;;;;;;3.30;2.60;;;53.80;8.70;;;;;;5044311;28;20454;-64
2021/09/23 12:47:04;;;;;;;2.60;2.00;;;53.50;9.10;;;;;;5045983;28;21020;-64
2021/09/23 12:49:31;;;;;;;2.87;2.40;;;53.00;9.20;;;;;;5045767;28;20507;-64
2021/09/23 12:52:15;;;;;;;2.90;2.57;;;52.60;9.50;;;;;;5043873;28;20528;-65
2021/09/23 12:54:57;;;;;;;2.57;2.37;;;51.90;9.70;;;;;;5043330;28;20449;-64
2021/09/23 12:57:26;;;;;;;3.93;3.00;;;50.40;10.00;;;;;;5045357;28;20429;-65
2021/09/23 13:00:10;;;;;;;3.80;2.50;;;49.00;11.00;;;;;;5045627;28;20544;-66
2021/09/23 13:02:37;;;;;;;3.30;2.43;;;47.50;11.60;;;;;;5045208;28;20484;-64
2021/09/23 13:05:07;;;;;;;3.13;2.43;;;46.20;12.00;;;;;;5043785;28;20521;-65
2021/09/23 13:07:45;;;;;;;4.87;2.83;;;44.60;12.70;;;;;;5044105;28;20442;-65
2021/09/23 13:10:14;;;;;;;2.93;2.40;;;43.00;13.90;;;;;;5043237;28;20491;-64
2021/09/23 13:12:44;;;;;;;3.40;2.57;;;41.20;15.20;;;;;;5043536;28;20512;-64
2021/09/23 13:15:20;;;;;;;2.87;2.23;;;39.30;16.40;;;;;;5047044;28;20858;-64
2021/09/23 13:18:15;;;;;;;4.67;2.70;;;38.00;17.60;;;;;;5043781;28;20480;-64
2021/09/23 13:20:44;;;;;;;3.63;2.60;;;36.70;18.50;;;;;;5006155;28;20577;-63
2021/09/23 13:23:17;;;;;;;4.30;2.30;;;35.70;19.00;;;;;;5039521;28;20438;-64
2021/09/23 13:25:46;;;;;;;3.90;2.93;;;34.90;21.10;;;;;;5041743;28;20491;-64
2021/09/23 13:28:20;;;;;;;3.30;2.90;;;34.00;22.40;;;;;;5043495;28;20847;-65